sensor_id;sensor_type;location;lat;lon;timestamp;pressure;altitude;pressure_sealevel;temperature;humidity
37206;BME280;23099;42.636;23.198;2023-05-08T00:00:27;92197.03;;;9.86;94.49
37206;BME280;23099;42.636;23.198;2023-05-08T00:02:54;92196.19;;;9.82;94.62
37206;BME280;23099;42.636;23.198;2023-05-08T00:05:23;92194.34;;;9.86;94.53
37206;BME280;23099;42.636;23.198;2023-05-08T00:07:49;92189.44;;;9.88;94.67
37206;BME280;23099;42.636;23.198;2023-05-08T00:10:18;92191.00;;;9.89;94.81
37206;BME280;23099;42.636;23.198;2023-05-08T00:12:44;92186.97;;;9.99;94.68
37206;BME280;23099;42.636;23.198;2023-05-08T00:15:11;92192.47;;;10.06;94.33
37206;BME280;23099;42.636;23.198;2023-05-08T00:17:38;92191.06;;;10.12;93.75
37206;BME280;23099;42.636;23.198;2023-05-08T00:20:05;92198.13;;;10.20;93.18
37206;BME280;23099;42.636;23.198;2023-05-08T00:22:34;92199.91;;;10.16;93.22
37206;BME280;23099;42.636;23.198;2023-05-08T00:25:01;92209.16;;;10.19;93.08
37206;BME280;23099;42.636;23.198;2023-05-08T00:27:28;92207.94;;;10.16;93.12
37206;BME280;23099;42.636;23.198;2023-05-08T00:29:55;92210.75;;;10.04;93.44
37206;BME280;23099;42.636;23.198;2023-05-08T00:32:22;92213.06;;;10.06;93.25
37206;BME280;23099;42.636;23.198;2023-05-08T00:34:49;92210.81;;;10.08;92.92
37206;BME280;23099;42.636;23.198;2023-05-08T00:37:16;92204.28;;;10.05;92.82
37206;BME280;23099;42.636;23.198;2023-05-08T00:39:44;92206.03;;;9.98;92.81
37206;BME280;23099;42.636;23.198;2023-05-08T00:42:11;92209.94;;;9.84;92.73
37206;BME280;23099;42.636;23.198;2023-05-08T00:44:37;92212.13;;;9.79;92.70
37206;BME280;23099;42.636;23.198;2023-05-08T00:47:05;92198.31;;;9.57;93.11
37206;BME280;23099;42.636;23.198;2023-05-08T00:49:33;92208.22;;;9.57;94.28
37206;BME280;23099;42.636;23.198;2023-05-08T00:52:01;92209.91;;;9.46;94.80
37206;BME280;23099;42.636;23.198;2023-05-08T00:54:30;92212.56;;;9.46;94.65
37206;BME280;23099;42.636;23.198;2023-05-08T00:56:59;92215.16;;;9.42;94.96
37206;BME280;23099;42.636;23.198;2023-05-08T00:59:26;92220.47;;;9.42;96.11
37206;BME280;23099;42.636;23.198;2023-05-08T01:01:53;92218.31;;;9.48;96.29
37206;BME280;23099;42.636;23.198;2023-05-08T01:04:22;92220.72;;;9.53;96.34
37206;BME280;23099;42.636;23.198;2023-05-08T01:06:49;92217.34;;;9.56;95.30
37206;BME280;23099;42.636;23.198;2023-05-08T01:09:16;92217.69;;;9.54;94.60
37206;BME280;23099;42.636;23.198;2023-05-08T01:11:47;92221.13;;;9.55;94.06
37206;BME280;23099;42.636;23.198;2023-05-08T01:14:19;92229.50;;;9.38;94.07
37206;BME280;23099;42.636;23.198;2023-05-08T01:16:56;92222.38;;;9.26;94.30
37206;BME280;23099;42.636;23.198;2023-05-08T01:19:41;92221.97;;;9.24;94.54
37206;BME280;23099;42.636;23.198;2023-05-08T01:22:23;92224.56;;;9.20;95.14
37206;BME280;23099;42.636;23.198;2023-05-08T01:25:16;92221.56;;;9.22;95.75
37206;BME280;23099;42.636;23.198;2023-05-08T01:30:58;92214.72;;;9.25;97.43
37206;BME280;23099;42.636;23.198;2023-05-08T01:33:32;92217.78;;;9.23;97.75
37206;BME280;23099;42.636;23.198;2023-05-08T01:36:09;92212.06;;;9.25;97.82
37206;BME280;23099;42.636;23.198;2023-05-08T01:38:42;92215.09;;;9.23;98.43
37206;BME280;23099;42.636;23.198;2023-05-08T01:41:15;92212.59;;;9.30;98.27
37206;BME280;23099;42.636;23.198;2023-05-08T01:43:49;92210.34;;;9.32;96.85
37206;BME280;23099;42.636;23.198;2023-05-08T01:46:21;92212.25;;;9.32;96.19
37206;BME280;23099;42.636;23.198;2023-05-08T01:48:58;92209.44;;;9.09;97.20
37206;BME280;23099;42.636;23.198;2023-05-08T01:51:27;92207.13;;;9.07;98.06
37206;BME280;23099;42.636;23.198;2023-05-08T01:54:04;92198.78;;;9.09;98.64
37206;BME280;23099;42.636;23.198;2023-05-08T01:56:33;92209.34;;;9.05;99.25
37206;BME280;23099;42.636;23.198;2023-05-08T01:59:03;92207.28;;;8.99;99.46
37206;BME280;23099;42.636;23.198;2023-05-08T02:01:32;92209.59;;;9.00;98.25
37206;BME280;23099;42.636;23.198;2023-05-08T02:04:01;92211.41;;;8.80;98.19
37206;BME280;23099;42.636;23.198;2023-05-08T02:06:29;92213.03;;;8.85;98.49
37206;BME280;23099;42.636;23.198;2023-05-08T02:08:57;92205.31;;;8.80;99.31
37206;BME280;23099;42.636;23.198;2023-05-08T02:11:25;92203.69;;;8.75;100.00
37206;BME280;23099;42.636;23.198;2023-05-08T02:13:53;92207.56;;;8.78;100.00
37206;BME280;23099;42.636;23.198;2023-05-08T02:16:24;92208.00;;;8.80;100.00
37206;BME280;23099;42.636;23.198;2023-05-08T02:18:53;92202.38;;;8.85;100.00
37206;BME280;23099;42.636;23.198;2023-05-08T02:21:24;92204.88;;;8.78;100.00
37206;BME280;23099;42.636;23.198;2023-05-08T02:23:51;92190.94;;;8.69;100.00
37206;BME280;23099;42.636;23.198;2023-05-08T02:26:21;92196.38;;;8.72;100.00
37206;BME280;23099;42.636;23.198;2023-05-08T02:28:48;92197.41;;;8.83;100.00
37206;BME280;23099;42.636;23.198;2023-05-08T02:31:17;92202.47;;;8.89;100.00
37206;BME280;23099;42.636;23.198;2023-05-08T02:33:44;92207.63;;;8.97;100.00
37206;BME280;23099;42.636;23.198;2023-05-08T02:36:14;92211.75;;;8.95;100.00
37206;BME280;23099;42.636;23.198;2023-05-08T02:38:43;92208.06;;;8.99;100.00
37206;BME280;23099;42.636;23.198;2023-05-08T02:41:12;92211.69;;;9.07;100.00
37206;BME280;23099;42.636;23.198;2023-05-08T02:43:41;92210.28;;;9.13;100.00
37206;BME280;23099;42.636;23.198;2023-05-08T02:46:12;92208.03;;;9.15;100.00
37206;BME280;23099;42.636;23.198;2023-05-08T02:48:45;92212.16;;;9.12;100.00
37206;BME280;23099;42.636;23.198;2023-05-08T02:51:17;92218.63;;;9.11;100.00
37206;BME280;23099;42.636;23.198;2023-05-08T02:53:51;92212.84;;;9.09;100.00
37206;BME280;23099;42.636;23.198;2023-05-08T02:56:28;92209.06;;;9.10;100.00
37206;BME280;23099;42.636;23.198;2023-05-08T02:58:59;92215.13;;;9.07;100.00
37206;BME280;23099;42.636;23.198;2023-05-08T03:01:34;92211.50;;;9.00;100.00
37206;BME280;23099;42.636;23.198;2023-05-08T03:04:06;92205.72;;;8.98;100.00
37206;BME280;23099;42.636;23.198;2023-05-08T03:06:36;92210.47;;;9.04;100.00
37206;BME280;23099;42.636;23.198;2023-05-08T03:09:06;92205.91;;;8.89;100.00
37206;BME280;23099;42.636;23.198;2023-05-08T03:11:39;92207.13;;;8.76;100.00
37206;BME280;23099;42.636;23.198;2023-05-08T03:14:10;92208.00;;;8.80;100.00
37206;BME280;23099;42.636;23.198;2023-05-08T03:16:40;92208.81;;;8.84;100.00
37206;BME280;23099;42.636;23.198;2023-05-08T03:19:14;92204.19;;;8.81;100.00
37206;BME280;23099;42.636;23.198;2023-05-08T03:21:43;92207.03;;;8.88;100.00
37206;BME280;23099;42.636;23.198;2023-05-08T03:24:14;92207.56;;;8.94;100.00
37206;BME280;23099;42.636;23.198;2023-05-08T03:26:43;92196.47;;;8.92;100.00
37206;BME280;23099;42.636;23.198;2023-05-08T03:29:12;92217.59;;;9.00;100.00
37206;BME280;23099;42.636;23.198;2023-05-08T03:31:40;92215.53;;;9.09;100.00
37206;BME280;23099;42.636;23.198;2023-05-08T03:34:08;92216.66;;;9.08;100.00
37206;BME280;23099;42.636;23.198;2023-05-08T03:36:37;92213.81;;;9.17;100.00
37206;BME280;23099;42.636;23.198;2023-05-08T03:39:04;92215.09;;;9.23;100.00
37206;BME280;23099;42.636;23.198;2023-05-08T03:41:33;92217.06;;;9.10;100.00
37206;BME280;23099;42.636;23.198;2023-05-08T03:44:01;92216.81;;;9.15;100.00
37206;BME280;23099;42.636;23.198;2023-05-08T03:46:30;92208.47;;;9.17;100.00
37206;BME280;23099;42.636;23.198;2023-05-08T03:48:57;92213.56;;;9.22;100.00
37206;BME280;23099;42.636;23.198;2023-05-08T03:51:25;92209.78;;;9.23;100.00
37206;BME280;23099;42.636;23.198;2023-05-08T03:53:52;92215.59;;;9.29;100.00
37206;BME280;23099;42.636;23.198;2023-05-08T03:56:19;92211.91;;;9.33;100.00
37206;BME280;23099;42.636;23.198;2023-05-08T03:58:54;92211.63;;;9.38;100.00
37206;BME280;23099;42.636;23.198;2023-05-08T04:01:24;92219.00;;;9.45;100.00
37206;BME280;23099;42.636;23.198;2023-05-08T04:03:57;92222.97;;;9.51;100.00
37206;BME280;23099;42.636;23.198;2023-05-08T04:06:28;92224.66;;;9.59;100.00
37206;BME280;23099;42.636;23.198;2023-05-08T04:09:04;92219.53;;;9.50;99.52
37206;BME280;23099;42.636;23.198;2023-05-08T04:11:37;92226.56;;;9.58;99.98
37206;BME280;23099;42.636;23.198;2023-05-08T04:14:09;92226.03;;;9.53;100.00
37206;BME280;23099;42.636;23.198;2023-05-08T04:16:46;92228.03;;;9.56;100.00
37206;BME280;23099;42.636;23.198;2023-05-08T04:19:18;92223.19;;;9.62;100.00
37206;BME280;23099;42.636;23.198;2023-05-08T04:21:47;92217.66;;;9.70;100.00
37206;BME280;23099;42.636;23.198;2023-05-08T04:24:16;92225.47;;;9.79;100.00
37206;BME280;23099;42.636;23.198;2023-05-08T04:26:43;92226.75;;;9.85;100.00
37206;BME280;23099;42.636;23.198;2023-05-08T04:29:12;92222.34;;;9.92;100.00
37206;BME280;23099;42.636;23.198;2023-05-08T04:31:39;92224.22;;;9.92;100.00
37206;BME280;23099;42.636;23.198;2023-05-08T04:34:07;92224.00;;;10.01;100.00
37206;BME280;23099;42.636;23.198;2023-05-08T04:36:34;92221.16;;;10.09;100.00
37206;BME280;23099;42.636;23.198;2023-05-08T04:39:01;92221.03;;;10.21;100.00
37206;BME280;23099;42.636;23.198;2023-05-08T04:41:27;92210.78;;;10.23;100.00
37206;BME280;23099;42.636;23.198;2023-05-08T04:43:54;92223.91;;;10.32;100.00
37206;BME280;23099;42.636;23.198;2023-05-08T04:46:22;92213.84;;;10.45;100.00
37206;BME280;23099;42.636;23.198;2023-05-08T04:48:49;92214.81;;;10.56;100.00
37206;BME280;23099;42.636;23.198;2023-05-08T04:51:17;92216.84;;;10.62;99.84
37206;BME280;23099;42.636;23.198;2023-05-08T04:53:43;92218.66;;;10.78;98.52
37206;BME280;23099;42.636;23.198;2023-05-08T04:56:10;92209.53;;;10.82;97.76
37206;BME280;23099;42.636;23.198;2023-05-08T04:58:37;92209.31;;;10.91;97.53
37206;BME280;23099;42.636;23.198;2023-05-08T05:01:04;92213.84;;;11.10;97.73
37206;BME280;23099;42.636;23.198;2023-05-08T05:03:32;92208.94;;;11.15;97.78
37206;BME280;23099;42.636;23.198;2023-05-08T05:05:59;92201.56;;;11.31;97.23
37206;BME280;23099;42.636;23.198;2023-05-08T05:08:26;92196.00;;;11.44;96.79
37206;BME280;23099;42.636;23.198;2023-05-08T05:10:53;92197.69;;;11.55;94.15
37206;BME280;23099;42.636;23.198;2023-05-08T05:13:20;92201.63;;;11.61;94.46
37206;BME280;23099;42.636;23.198;2023-05-08T05:15:46;92192.22;;;11.75;96.67
37206;BME280;23099;42.636;23.198;2023-05-08T05:18:15;92190.06;;;11.80;95.99
37206;BME280;23099;42.636;23.198;2023-05-08T05:20:43;92192.50;;;11.92;94.70
37206;BME280;23099;42.636;23.198;2023-05-08T05:23:10;92184.88;;;11.94;94.68
37206;BME280;23099;42.636;23.198;2023-05-08T05:25:37;92187.19;;;11.96;95.75
37206;BME280;23099;42.636;23.198;2023-05-08T05:28:04;92187.38;;;12.10;96.35
37206;BME280;23099;42.636;23.198;2023-05-08T05:30:30;92192.72;;;12.10;95.82
37206;BME280;23099;42.636;23.198;2023-05-08T05:32:57;92190.06;;;12.10;93.28
37206;BME280;23099;42.636;23.198;2023-05-08T05:35:24;92193.00;;;12.01;88.76
37206;BME280;23099;42.636;23.198;2023-05-08T05:37:52;92197.63;;;12.04;89.67
37206;BME280;23099;42.636;23.198;2023-05-08T05:40:19;92195.78;;;12.12;89.42
37206;BME280;23099;42.636;23.198;2023-05-08T05:42:47;92202.97;;;12.04;90.76
37206;BME280;23099;42.636;23.198;2023-05-08T05:45:14;92193.88;;;12.13;91.37
37206;BME280;23099;42.636;23.198;2023-05-08T05:47:44;92198.94;;;12.18;90.40
37206;BME280;23099;42.636;23.198;2023-05-08T05:50:14;92200.13;;;12.20;89.46
37206;BME280;23099;42.636;23.198;2023-05-08T05:52:41;92191.41;;;12.30;91.04
37206;BME280;23099;42.636;23.198;2023-05-08T05:55:09;92186.16;;;12.37;89.72
37206;BME280;23099;42.636;23.198;2023-05-08T05:57:36;92198.84;;;12.44;89.83
37206;BME280;23099;42.636;23.198;2023-05-08T06:00:03;92181.72;;;12.52;90.09
37206;BME280;23099;42.636;23.198;2023-05-08T06:02:30;92182.53;;;12.60;88.92
37206;BME280;23099;42.636;23.198;2023-05-08T06:04:58;92187.59;;;12.65;88.30
37206;BME280;23099;42.636;23.198;2023-05-08T06:07:24;92186.22;;;12.82;88.04
37206;BME280;23099;42.636;23.198;2023-05-08T06:09:51;92186.31;;;12.92;88.35
37206;BME280;23099;42.636;23.198;2023-05-08T06:12:19;92185.31;;;13.07;89.73
37206;BME280;23099;42.636;23.198;2023-05-08T06:14:46;92177.75;;;13.20;87.82
37206;BME280;23099;42.636;23.198;2023-05-08T06:17:16;92186.25;;;13.29;86.39
37206;BME280;23099;42.636;23.198;2023-05-08T06:19:43;92186.44;;;13.51;86.09
37206;BME280;23099;42.636;23.198;2023-05-08T06:22:10;92183.91;;;13.79;87.04
37206;BME280;23099;42.636;23.198;2023-05-08T06:24:36;92175.59;;;14.05;86.90
37206;BME280;23099;42.636;23.198;2023-05-08T06:27:03;92188.00;;;14.28;83.62
37206;BME280;23099;42.636;23.198;2023-05-08T06:29:31;92180.38;;;14.44;83.96
37206;BME280;23099;42.636;23.198;2023-05-08T06:31:58;92179.72;;;14.68;84.53
37206;BME280;23099;42.636;23.198;2023-05-08T06:34:25;92172.03;;;14.77;82.09
37206;BME280;23099;42.636;23.198;2023-05-08T06:36:51;92174.00;;;14.98;80.41
37206;BME280;23099;42.636;23.198;2023-05-08T06:39:18;92187.88;;;15.14;80.65
37206;BME280;23099;42.636;23.198;2023-05-08T06:41:46;92193.25;;;15.36;80.56
37206;BME280;23099;42.636;23.198;2023-05-08T06:44:12;92188.63;;;15.50;79.44
37206;BME280;23099;42.636;23.198;2023-05-08T06:46:41;92187.88;;;15.68;78.72
37206;BME280;23099;42.636;23.198;2023-05-08T06:49:07;92184.38;;;15.81;80.05
37206;BME280;23099;42.636;23.198;2023-05-08T06:51:34;92187.44;;;15.87;77.47
37206;BME280;23099;42.636;23.198;2023-05-08T06:54:02;92195.91;;;15.93;76.95
37206;BME280;23099;42.636;23.198;2023-05-08T06:56:32;92201.31;;;15.93;76.59
37206;BME280;23099;42.636;23.198;2023-05-08T06:58:58;92196.69;;;16.00;76.36
37206;BME280;23099;42.636;23.198;2023-05-08T07:01:25;92197.41;;;16.11;75.58
37206;BME280;23099;42.636;23.198;2023-05-08T07:03:53;92208.16;;;16.22;74.54
37206;BME280;23099;42.636;23.198;2023-05-08T07:06:20;92211.97;;;16.42;75.70
37206;BME280;23099;42.636;23.198;2023-05-08T07:08:47;92205.72;;;16.59;72.87
37206;BME280;23099;42.636;23.198;2023-05-08T07:11:13;92209.13;;;16.78;72.06
37206;BME280;23099;42.636;23.198;2023-05-08T07:13:40;92205.19;;;16.96;71.04
37206;BME280;23099;42.636;23.198;2023-05-08T07:16:08;92205.50;;;17.06;71.30
37206;BME280;23099;42.636;23.198;2023-05-08T07:18:35;92201.22;;;17.15;69.57
37206;BME280;23099;42.636;23.198;2023-05-08T07:21:03;92202.31;;;17.25;69.94
37206;BME280;23099;42.636;23.198;2023-05-08T07:23:29;92206.84;;;17.35;68.78
37206;BME280;23099;42.636;23.198;2023-05-08T07:25:56;92203.34;;;17.42;68.08
37206;BME280;23099;42.636;23.198;2023-05-08T07:28:23;92209.06;;;17.51;68.56
37206;BME280;23099;42.636;23.198;2023-05-08T07:30:50;92209.09;;;17.47;68.36
37206;BME280;23099;42.636;23.198;2023-05-08T07:33:17;92202.59;;;17.41;68.42
37206;BME280;23099;42.636;23.198;2023-05-08T07:35:43;92209.13;;;17.44;69.83
37206;BME280;23099;42.636;23.198;2023-05-08T07:38:12;92208.31;;;17.47;68.81
37206;BME280;23099;42.636;23.198;2023-05-08T07:40:38;92216.00;;;17.52;68.59
37206;BME280;23099;42.636;23.198;2023-05-08T07:43:05;92207.47;;;17.57;68.86
37206;BME280;23099;42.636;23.198;2023-05-08T07:45:32;92213.59;;;17.68;67.50
37206;BME280;23099;42.636;23.198;2023-05-08T07:47:59;92211.25;;;17.74;67.20
37206;BME280;23099;42.636;23.198;2023-05-08T07:50:25;92205.66;;;17.91;68.42
37206;BME280;23099;42.636;23.198;2023-05-08T07:52:52;92214.41;;;18.06;66.46
37206;BME280;23099;42.636;23.198;2023-05-08T07:55:20;92211.94;;;18.19;67.04
37206;BME280;23099;42.636;23.198;2023-05-08T07:57:47;92215.75;;;18.25;66.56
37206;BME280;23099;42.636;23.198;2023-05-08T08:00:14;92216.28;;;17.68;65.35
37206;BME280;23099;42.636;23.198;2023-05-08T08:02:42;92222.13;;;17.59;66.02
37206;BME280;23099;42.636;23.198;2023-05-08T08:05:09;92214.78;;;17.63;67.05
37206;BME280;23099;42.636;23.198;2023-05-08T08:07:36;92227.53;;;17.59;67.60
37206;BME280;23099;42.636;23.198;2023-05-08T08:10:05;92228.09;;;17.88;67.10
37206;BME280;23099;42.636;23.198;2023-05-08T08:12:33;92232.25;;;18.00;65.82
37206;BME280;23099;42.636;23.198;2023-05-08T08:14:59;92228.56;;;18.21;65.95
37206;BME280;23099;42.636;23.198;2023-05-08T08:17:26;92224.53;;;18.36;64.41
37206;BME280;23099;42.636;23.198;2023-05-08T08:19:53;92228.13;;;18.63;66.83
37206;BME280;23099;42.636;23.198;2023-05-08T08:22:20;92228.66;;;18.85;66.63
37206;BME280;23099;42.636;23.198;2023-05-08T08:24:46;92236.25;;;18.94;63.69
37206;BME280;23099;42.636;23.198;2023-05-08T08:27:13;92230.78;;;19.01;60.79
37206;BME280;23099;42.636;23.198;2023-05-08T08:29:41;92233.16;;;18.95;59.22
37206;BME280;23099;42.636;23.198;2023-05-08T08:32:08;92232.50;;;18.88;61.41
37206;BME280;23099;42.636;23.198;2023-05-08T08:34:35;92241.59;;;18.70;60.00
37206;BME280;23099;42.636;23.198;2023-05-08T08:37:04;92237.47;;;18.59;61.38
37206;BME280;23099;42.636;23.198;2023-05-08T08:39:31;92237.50;;;18.52;62.78
37206;BME280;23099;42.636;23.198;2023-05-08T08:41:58;92232.81;;;18.59;63.11
37206;BME280;23099;42.636;23.198;2023-05-08T08:44:25;92229.72;;;18.57;63.06
37206;BME280;23099;42.636;23.198;2023-05-08T08:46:54;92224.66;;;18.25;63.43
37206;BME280;23099;42.636;23.198;2023-05-08T08:49:24;92240.47;;;18.27;63.37
37206;BME280;23099;42.636;23.198;2023-05-08T08:51:57;92227.34;;;18.25;63.00
37206;BME280;23099;42.636;23.198;2023-05-08T08:54:27;92234.06;;;18.10;62.79
37206;BME280;23099;42.636;23.198;2023-05-08T08:56:54;92226.91;;;17.89;62.78
37206;BME280;23099;42.636;23.198;2023-05-08T08:59:23;92224.31;;;17.79;65.61
37206;BME280;23099;42.636;23.198;2023-05-08T09:01:55;92218.69;;;17.52;63.90
37206;BME280;23099;42.636;23.198;2023-05-08T09:04:23;92213.38;;;17.45;64.31
37206;BME280;23099;42.636;23.198;2023-05-08T09:06:52;92209.19;;;17.33;65.45
37206;BME280;23099;42.636;23.198;2023-05-08T09:09:19;92206.25;;;17.10;67.70
37206;BME280;23099;42.636;23.198;2023-05-08T09:11:47;92201.63;;;17.14;67.08
37206;BME280;23099;42.636;23.198;2023-05-08T09:14:13;92203.88;;;17.22;69.19
37206;BME280;23099;42.636;23.198;2023-05-08T09:16:40;92191.09;;;17.30;68.13
37206;BME280;23099;42.636;23.198;2023-05-08T09:19:09;92181.78;;;17.35;68.15
37206;BME280;23099;42.636;23.198;2023-05-08T09:21:39;92182.06;;;17.47;67.29
37206;BME280;23099;42.636;23.198;2023-05-08T09:24:06;92175.00;;;17.64;67.92
37206;BME280;23099;42.636;23.198;2023-05-08T09:26:34;92164.91;;;17.72;66.42
37206;BME280;23099;42.636;23.198;2023-05-08T09:29:11;92177.19;;;17.80;64.99
37206;BME280;23099;42.636;23.198;2023-05-08T09:31:39;92169.44;;;17.82;65.01
37206;BME280;23099;42.636;23.198;2023-05-08T09:34:09;92162.13;;;17.79;64.29
37206;BME280;23099;42.636;23.198;2023-05-08T09:36:36;92174.66;;;18.03;64.92
37206;BME280;23099;42.636;23.198;2023-05-08T09:39:09;92189.91;;;18.20;64.16
37206;BME280;23099;42.636;23.198;2023-05-08T09:41:36;92184.03;;;18.29;63.86
37206;BME280;23099;42.636;23.198;2023-05-08T09:44:04;92184.34;;;18.34;62.06
37206;BME280;23099;42.636;23.198;2023-05-08T09:46:31;92193.41;;;18.55;62.86
37206;BME280;23099;42.636;23.198;2023-05-08T09:49:00;92196.78;;;18.66;60.48
37206;BME280;23099;42.636;23.198;2023-05-08T09:51:28;92185.78;;;18.77;60.17
37206;BME280;23099;42.636;23.198;2023-05-08T09:53:57;92190.00;;;18.81;57.89
37206;BME280;23099;42.636;23.198;2023-05-08T09:56:35;92183.06;;;18.80;59.92
37206;BME280;23099;42.636;23.198;2023-05-08T09:59:03;92181.63;;;18.72;60.15
37206;BME280;23099;42.636;23.198;2023-05-08T10:01:31;92193.13;;;18.80;58.66
37206;BME280;23099;42.636;23.198;2023-05-08T10:03:58;92187.81;;;18.73;60.22
37206;BME280;23099;42.636;23.198;2023-05-08T10:06:26;92182.31;;;18.76;59.90
37206;BME280;23099;42.636;23.198;2023-05-08T10:09:11;92190.19;;;18.67;59.56
37206;BME280;23099;42.636;23.198;2023-05-08T10:11:39;92182.31;;;18.76;60.61
37206;BME280;23099;42.636;23.198;2023-05-08T10:14:06;92181.06;;;18.84;62.64
37206;BME280;23099;42.636;23.198;2023-05-08T10:16:38;92174.66;;;19.01;59.28
37206;BME280;23099;42.636;23.198;2023-05-08T10:19:11;92168.50;;;18.97;59.31
37206;BME280;23099;42.636;23.198;2023-05-08T10:21:40;92157.94;;;19.06;57.89
37206;BME280;23099;42.636;23.198;2023-05-08T10:24:13;92170.81;;;19.26;57.24
37206;BME280;23099;42.636;23.198;2023-05-08T10:26:42;92166.41;;;19.35;58.08
37206;BME280;23099;42.636;23.198;2023-05-08T10:29:16;92154.09;;;19.58;56.98
37206;BME280;23099;42.636;23.198;2023-05-08T10:31:45;92167.22;;;19.83;57.13
37206;BME280;23099;42.636;23.198;2023-05-08T10:34:18;92160.59;;;20.07;58.59
37206;BME280;23099;42.636;23.198;2023-05-08T10:36:45;92159.03;;;20.49;56.54
37206;BME280;23099;42.636;23.198;2023-05-08T10:39:14;92149.59;;;20.93;54.75
37206;BME280;23099;42.636;23.198;2023-05-08T10:41:42;92152.94;;;21.21;53.01
37206;BME280;23099;42.636;23.198;2023-05-08T10:44:09;92144.88;;;21.33;52.06
37206;BME280;23099;42.636;23.198;2023-05-08T10:46:39;92148.59;;;21.39;50.24
37206;BME280;23099;42.636;23.198;2023-05-08T10:49:15;92144.25;;;21.26;48.72
37206;BME280;23099;42.636;23.198;2023-05-08T10:51:52;92144.59;;;20.92;51.05
37206;BME280;23099;42.636;23.198;2023-05-08T10:54:29;92139.59;;;21.42;52.29
37206;BME280;23099;42.636;23.198;2023-05-08T10:57:07;92133.44;;;21.87;49.29
37206;BME280;23099;42.636;23.198;2023-05-08T10:59:35;92144.75;;;22.18;48.84
37206;BME280;23099;42.636;23.198;2023-05-08T11:02:06;92134.97;;;22.20;45.71
37206;BME280;23099;42.636;23.198;2023-05-08T11:04:33;92125.59;;;22.21;44.05
37206;BME280;23099;42.636;23.198;2023-05-08T11:07:00;92124.88;;;22.34;46.36
37206;BME280;23099;42.636;23.198;2023-05-08T11:09:44;92125.53;;;22.38;41.94
37206;BME280;23099;42.636;23.198;2023-05-08T11:12:19;92111.41;;;21.98;41.92
37206;BME280;23099;42.636;23.198;2023-05-08T11:14:54;92114.84;;;22.02;44.74
37206;BME280;23099;42.636;23.198;2023-05-08T11:17:24;92103.84;;;22.34;42.45
37206;BME280;23099;42.636;23.198;2023-05-08T11:19:56;92102.69;;;22.48;42.21
37206;BME280;23099;42.636;23.198;2023-05-08T11:22:28;92106.13;;;22.65;40.68
37206;BME280;23099;42.636;23.198;2023-05-08T11:25:01;92090.06;;;23.08;41.26
37206;BME280;23099;42.636;23.198;2023-05-08T11:30:38;92085.22;;;23.63;39.42
37206;BME280;23099;42.636;23.198;2023-05-08T11:33:28;92080.06;;;23.78;37.36
37206;BME280;23099;42.636;23.198;2023-05-08T11:35:55;92082.16;;;23.95;39.33
37206;BME280;23099;42.636;23.198;2023-05-08T11:38:25;92073.56;;;23.84;37.41
37206;BME280;23099;42.636;23.198;2023-05-08T11:41:01;92071.63;;;23.85;36.82
37206;BME280;23099;42.636;23.198;2023-05-08T11:46:42;92059.69;;;24.26;35.97
37206;BME280;23099;42.636;23.198;2023-05-08T11:49:10;92059.81;;;24.44;36.74
37206;BME280;23099;42.636;23.198;2023-05-08T11:51:39;92060.81;;;23.81;35.45
37206;BME280;23099;42.636;23.198;2023-05-08T11:54:11;92050.84;;;23.53;37.15
37206;BME280;23099;42.636;23.198;2023-05-08T11:56:39;92061.66;;;23.31;38.36
37206;BME280;23099;42.636;23.198;2023-05-08T11:59:07;92059.81;;;23.15;37.97
37206;BME280;23099;42.636;23.198;2023-05-08T12:01:34;92062.47;;;22.94;39.79
37206;BME280;23099;42.636;23.198;2023-05-08T12:04:03;92047.91;;;22.71;39.91
37206;BME280;23099;42.636;23.198;2023-05-08T12:06:30;92061.28;;;22.53;39.29
37206;BME280;23099;42.636;23.198;2023-05-08T12:08:57;92066.00;;;22.23;41.07
37206;BME280;23099;42.636;23.198;2023-05-08T12:11:25;92067.28;;;22.06;41.22
37206;BME280;23099;42.636;23.198;2023-05-08T12:13:53;92067.03;;;21.84;41.19
37206;BME280;23099;42.636;23.198;2023-05-08T12:16:21;92076.78;;;21.37;42.80
37206;BME280;23099;42.636;23.198;2023-05-08T12:18:49;92081.50;;;20.84;46.13
37206;BME280;23099;42.636;23.198;2023-05-08T12:21:16;92087.78;;;20.45;50.12
37206;BME280;23099;42.636;23.198;2023-05-08T12:23:43;92073.28;;;20.32;53.06
37206;BME280;23099;42.636;23.198;2023-05-08T12:26:10;92070.09;;;20.37;55.53
37206;BME280;23099;42.636;23.198;2023-05-08T12:28:38;92074.25;;;20.22;55.88
37206;BME280;23099;42.636;23.198;2023-05-08T12:31:06;92069.38;;;20.13;59.61
37206;BME280;23099;42.636;23.198;2023-05-08T12:33:33;92077.88;;;19.95;63.00
37206;BME280;23099;42.636;23.198;2023-05-08T12:36:00;92078.38;;;19.67;67.15
37206;BME280;23099;42.636;23.198;2023-05-08T12:38:27;92079.03;;;19.51;69.14
37206;BME280;23099;42.636;23.198;2023-05-08T12:40:54;92072.19;;;19.20;73.40
37206;BME280;23099;42.636;23.198;2023-05-08T12:43:30;92069.66;;;19.09;74.61
37206;BME280;23099;42.636;23.198;2023-05-08T12:45:57;92060.88;;;19.01;73.09
37206;BME280;23099;42.636;23.198;2023-05-08T12:48:26;92058.47;;;19.07;73.59
37206;BME280;23099;42.636;23.198;2023-05-08T12:50:53;92056.16;;;19.05;72.21
37206;BME280;23099;42.636;23.198;2023-05-08T12:53:20;92051.81;;;19.12;74.88
37206;BME280;23099;42.636;23.198;2023-05-08T12:55:52;92053.00;;;19.11;76.62
37206;BME280;23099;42.636;23.198;2023-05-08T12:58:21;92048.69;;;19.13;79.31
37206;BME280;23099;42.636;23.198;2023-05-08T13:00:50;92044.22;;;19.26;81.97
37206;BME280;23099;42.636;23.198;2023-05-08T13:03:22;92044.44;;;19.35;79.04
37206;BME280;23099;42.636;23.198;2023-05-08T13:05:51;92043.44;;;19.26;82.83
37206;BME280;23099;42.636;23.198;2023-05-08T13:08:19;92042.91;;;19.11;87.42